createdAt,value
2022-12-05T00:02:35.975Z,3.30
2022-12-05T00:08:30.465Z,3.30
2022-12-05T00:14:48.904Z,3.40
2022-12-05T00:21:07.392Z,3.40
2022-12-05T00:27:01.816Z,3.40
2022-12-05T00:32:56.289Z,3.40
2022-12-05T00:39:15.467Z,3.40
2022-12-05T00:45:33.945Z,3.40
2022-12-05T00:51:29.610Z,3.40
2022-12-05T00:57:24.043Z,3.40
2022-12-05T01:03:43.012Z,3.50
2022-12-05T01:10:01.355Z,3.50
2022-12-05T01:15:55.716Z,3.50
2022-12-05T01:21:50.302Z,3.50
2022-12-05T01:28:21.025Z,3.60
2022-12-05T01:33:57.072Z,3.60
2022-12-05T01:39:51.469Z,3.50
2022-12-05T01:45:46.716Z,3.60
2022-12-05T01:48:42.714Z,3.70
2022-12-05T01:52:13.451Z,3.70
2022-12-05T01:56:24.059Z,3.70
2022-12-05T02:03:02.757Z,3.70
2022-12-05T02:08:57.164Z,3.80
2022-12-05T02:14:57.223Z,3.80
2022-12-05T02:21:55.742Z,3.80
2022-12-05T02:28:29.387Z,3.80
2022-12-05T02:34:56.324Z,3.70
2022-12-05T02:41:02.341Z,3.80
2022-12-05T02:47:22.724Z,3.80
2022-12-05T02:53:41.093Z,3.90
2022-12-05T02:59:35.543Z,3.90
2022-12-05T03:05:40.142Z,3.90
2022-12-05T03:12:12.687Z,3.90
2022-12-05T03:18:31.791Z,4.00
2022-12-05T03:24:25.124Z,4.00
2022-12-05T03:30:22.844Z,4.10
2022-12-05T03:36:44.313Z,4.10
2022-12-05T03:43:05.796Z,4.10
2022-12-05T03:49:02.928Z,4.10
2022-12-05T03:54:59.867Z,4.10
2022-12-05T04:01:18.493Z,4.20
2022-12-05T04:07:37.775Z,4.20
2022-12-05T04:13:35.183Z,4.30
2022-12-05T04:19:57.518Z,4.20
2022-12-05T04:26:29.138Z,4.20
2022-12-05T04:33:11.316Z,4.30
2022-12-05T04:39:10.752Z,4.20
2022-12-05T04:45:10.488Z,4.30
2022-12-05T04:51:31.269Z,4.30
2022-12-05T04:58:00.944Z,4.40
2022-12-05T05:03:56.816Z,4.40
2022-12-05T05:09:51.258Z,4.40
2022-12-05T05:16:19.385Z,4.40
2022-12-05T05:22:37.808Z,4.50
2022-12-05T05:28:32.294Z,4.50
2022-12-05T05:34:28.688Z,4.50
2022-12-05T05:40:47.205Z,4.50
2022-12-05T05:47:04.907Z,4.60
2022-12-05T05:52:55.309Z,4.50
2022-12-05T05:58:55.557Z,4.50
2022-12-05T06:05:13.997Z,4.60
2022-12-05T06:11:32.368Z,4.60
2022-12-05T06:17:26.702Z,4.70
2022-12-05T06:23:21.291Z,4.70
2022-12-05T06:29:51.812Z,4.70
2022-12-05T06:36:11.173Z,4.70
2022-12-05T06:42:05.533Z,4.70
2022-12-05T06:47:59.978Z,4.80
2022-12-05T06:54:18.491Z,4.80
2022-12-05T07:00:55.382Z,4.90
2022-12-05T07:06:50.961Z,4.90
2022-12-05T07:12:45.801Z,4.90
2022-12-05T07:19:04.371Z,4.90
2022-12-05T07:25:23.475Z,5.00
2022-12-05T07:31:18.827Z,5.00
2022-12-05T07:37:14.088Z,5.00
2022-12-05T07:43:32.297Z,5.10
2022-12-05T07:49:50.669Z,5.10
2022-12-05T07:55:45.032Z,5.10
2022-12-05T08:01:39.514Z,5.10
2022-12-05T08:07:58.126Z,5.20
2022-12-05T08:14:16.311Z,5.20
2022-12-05T08:20:10.470Z,5.30
2022-12-05T08:23:11.484Z,5.30
2022-12-05T08:29:22.044Z,5.30
2022-12-05T08:35:40.179Z,5.40
2022-12-05T08:41:58.598Z,5.50
2022-12-05T08:47:52.974Z,5.50
2022-12-05T08:53:47.485Z,5.50
2022-12-05T09:00:06.858Z,5.60
2022-12-05T09:06:25.593Z,5.70
2022-12-05T09:12:19.943Z,5.70
2022-12-05T09:18:15.327Z,5.70
2022-12-05T09:22:56.909Z,5.70
2022-12-05T09:29:29.593Z,5.90
2022-12-05T09:35:48.008Z,5.90
2022-12-05T09:42:00.931Z,5.80
2022-12-05T09:48:01.378Z,5.80
2022-12-05T09:54:19.916Z,5.80
2022-12-05T10:00:38.274Z,5.90
2022-12-05T10:06:33.807Z,5.90
2022-12-05T10:12:40.568Z,5.90
2022-12-05T10:19:01.139Z,6.00
2022-12-05T10:25:20.762Z,6.10
2022-12-05T10:31:15.734Z,6.10
2022-12-05T10:37:23.264Z,6.20
2022-12-05T10:43:43.501Z,6.40
2022-12-05T10:50:16.022Z,6.50
2022-12-05T10:56:30.538Z,6.60
2022-12-05T11:02:25.593Z,6.40
2022-12-05T11:15:25.460Z,6.50
2022-12-05T11:21:20.881Z,6.50
2022-12-05T11:27:36.251Z,6.60
2022-12-05T11:34:15.164Z,6.50
2022-12-05T11:40:52.926Z,6.70
2022-12-05T11:46:47.305Z,6.70
2022-12-05T11:52:51.442Z,6.70
2022-12-05T11:59:37.558Z,6.70
2022-12-05T12:06:15.503Z,6.70
2022-12-05T12:12:13.430Z,6.70
2022-12-05T12:18:38.993Z,6.70
2022-12-05T12:25:00.804Z,6.70
2022-12-05T12:31:28.615Z,6.80
2022-12-05T12:37:41.605Z,6.80
2022-12-05T12:44:04.960Z,6.70
2022-12-05T12:50:36.640Z,6.70
2022-12-05T12:57:23.599Z,6.60
2022-12-05T13:03:46.105Z,6.70
2022-12-05T13:09:52.342Z,6.70
2022-12-05T13:16:12.844Z,6.80
2022-12-05T13:22:31.272Z,6.80
2022-12-05T13:28:29.911Z,6.80
2022-12-05T13:34:39.684Z,6.70
2022-12-05T13:41:28.728Z,6.80
2022-12-05T13:47:59.381Z,6.80
2022-12-05T13:54:01.638Z,6.80
2022-12-05T14:00:08.367Z,6.70
2022-12-05T14:06:38.671Z,6.80
2022-12-05T14:12:57.867Z,6.90
2022-12-05T14:19:06.574Z,6.90
2022-12-05T14:25:09.645Z,6.90
2022-12-05T14:31:46.653Z,7.00
2022-12-05T14:38:05.378Z,7.10
2022-12-05T14:44:02.665Z,7.10
2022-12-05T14:50:34.931Z,7.00
2022-12-05T14:57:00.844Z,6.90
2022-12-05T15:03:21.531Z,7.00
2022-12-05T15:09:37.636Z,7.00
2022-12-05T15:15:38.948Z,6.90
2022-12-05T15:21:58.989Z,6.80
2022-12-05T15:28:20.425Z,6.90
2022-12-05T15:34:23.741Z,6.90
2022-12-05T15:40:21.840Z,6.90
2022-12-05T15:48:23.071Z,6.90
2022-12-05T15:54:41.683Z,6.90
2022-12-05T16:00:15.962Z,6.90
2022-12-05T16:06:29.972Z,6.90
2022-12-05T16:12:33.450Z,6.90
2022-12-05T16:18:59.544Z,6.90
2022-12-05T16:25:18.847Z,6.90
2022-12-05T16:31:13.567Z,6.90
2022-12-05T16:36:26.549Z,6.90
2022-12-05T16:42:28.450Z,6.90
2022-12-05T16:49:18.358Z,6.90
2022-12-05T16:55:37.800Z,7.00
2022-12-05T17:01:37.122Z,7.00
2022-12-05T17:06:51.052Z,7.00
2022-12-05T17:13:11.440Z,7.00
2022-12-05T17:19:30.350Z,7.00
2022-12-05T17:25:31.034Z,7.00
2022-12-05T17:31:27.584Z,7.00
2022-12-05T17:37:46.145Z,7.00
2022-12-05T17:44:04.866Z,7.00
2022-12-05T17:49:59.441Z,7.10
2022-12-05T17:55:54.153Z,7.10
2022-12-05T18:02:12.657Z,7.10
2022-12-05T18:08:31.065Z,7.00
2022-12-05T18:14:27.585Z,7.00
2022-12-05T18:20:22.076Z,7.00
2022-12-05T18:26:40.519Z,7.00
2022-12-05T18:32:58.870Z,7.00
2022-12-05T18:38:53.973Z,6.90
2022-12-05T18:44:49.549Z,7.00
2022-12-05T18:51:21.932Z,7.00
2022-12-05T18:57:40.280Z,7.00
2022-12-05T19:03:34.956Z,6.90
2022-12-05T19:09:30.663Z,7.00
2022-12-05T19:15:49.152Z,7.00
2022-12-05T19:22:07.532Z,7.10
2022-12-05T19:28:01.884Z,7.10
2022-12-05T19:33:59.869Z,7.10
2022-12-05T19:40:16.029Z,7.20
2022-12-05T19:46:34.612Z,7.20
2022-12-05T19:52:28.576Z,7.20
2022-12-05T19:58:23.013Z,7.20
2022-12-05T20:04:43.095Z,7.20
2022-12-05T20:11:05.254Z,7.30
2022-12-05T20:16:59.668Z,7.20
2022-12-05T20:22:54.212Z,7.30
2022-12-05T20:29:12.837Z,7.20
2022-12-05T20:35:31.617Z,7.30
2022-12-05T20:41:26.062Z,7.30
2022-12-05T20:47:20.221Z,7.30
2022-12-05T20:53:50.848Z,7.30
2022-12-05T21:00:09.464Z,7.30
2022-12-05T21:06:17.040Z,7.40
2022-12-05T21:12:11.480Z,7.40
2022-12-05T21:18:30.552Z,7.50
2022-12-05T21:24:48.892Z,7.50
2022-12-05T21:30:43.255Z,7.40
2022-12-05T21:36:37.820Z,7.50
2022-12-05T21:42:56.250Z,7.40
2022-12-05T21:49:14.576Z,7.40
2022-12-05T21:55:09.272Z,7.30
2022-12-05T22:01:03.967Z,7.30
2022-12-05T22:07:22.396Z,7.30
2022-12-05T22:13:40.862Z,7.30
2022-12-05T22:19:35.193Z,7.30
2022-12-05T22:25:29.627Z,7.30
2022-12-05T22:31:48.150Z,7.30
2022-12-05T22:38:06.635Z,7.30
2022-12-05T22:44:00.964Z,7.30
2022-12-05T22:49:55.416Z,7.30
2022-12-05T22:56:26.881Z,7.30
2022-12-05T23:02:45.343Z,7.40
2022-12-05T23:08:40.378Z,7.40
2022-12-05T23:14:34.954Z,7.40
2022-12-05T23:20:53.457Z,7.40
2022-12-05T23:27:11.832Z,7.40
2022-12-05T23:33:06.248Z,7.40
2022-12-05T23:39:00.843Z,7.40
2022-12-05T23:45:19.417Z,7.40
2022-12-05T23:51:40.265Z,7.40
2022-12-05T23:57:34.689Z,7.40
